Time;durP1;ratioP1;P1;durP2;ratioP2;P2;SDS_P1;SDS_P2;PMS_P1;PMS_P2;Temp;Humidity;BMP_temperature;BMP_pressure;BME280_temperature;BME280_humidity;BME280_pressure;Samples;Min_cycle;Max_cycle;Signal;HPM_P1;HPM_P2
2022/08/14 00:00:20;;;;;;;4.67;2.87;;;20.00;99.90;;;;;;4850818;29;20203;-63
2022/08/14 00:02:51;;;;;;;5.27;3.20;;;20.00;99.90;;;;;;4852849;29;20207;-64
2022/08/14 00:05:21;;;;;;;7.60;3.27;;;19.90;99.90;;;;;;4855435;29;20200;-64
2022/08/14 00:07:50;;;;;;;11.63;3.50;;;19.80;99.90;;;;;;4857052;29;20354;-64
2022/08/14 00:10:23;;;;;;;7.87;3.40;;;19.60;99.90;;;;;;4854011;29;20198;-64
2022/08/14 00:13:13;;;;;;;9.60;3.50;;;19.50;99.90;;;;;;4852119;29;20210;-64
2022/08/14 00:15:44;;;;;;;6.43;2.97;;;19.40;99.90;;;;;;4845371;29;20200;-63
2022/08/14 00:18:18;;;;;;;5.60;3.40;;;19.30;99.90;;;;;;4857858;29;20237;-64
2022/08/14 00:21:08;;;;;;;4.60;3.47;;;19.20;99.90;;;;;;4849148;29;20212;-63
2022/08/14 00:23:39;;;;;;;6.80;3.47;;;19.10;99.90;;;;;;4852207;29;20211;-64
2022/08/14 00:26:07;;;;;;;7.77;3.23;;;19.10;99.90;;;;;;4850863;29;20216;-64
2022/08/14 00:28:53;;;;;;;8.47;3.27;;;19.00;99.90;;;;;;4847060;29;20208;-64
2022/08/14 00:31:22;;;;;;;3.70;3.40;;;19.00;99.90;;;;;;4846681;29;20200;-64
2022/08/14 00:34:10;;;;;;;3.90;3.23;;;19.00;99.90;;;;;;4841142;29;20219;-64
2022/08/14 00:36:59;;;;;;;7.87;3.53;;;18.90;99.90;;;;;;4848453;29;20793;-64
2022/08/14 00:39:29;;;;;;;3.83;3.50;;;18.90;99.90;;;;;;4855518;29;20266;-64
2022/08/14 00:41:57;;;;;;;6.77;3.47;;;18.90;99.90;;;;;;4849903;29;20279;-64
2022/08/14 00:44:28;;;;;;;5.50;3.77;;;18.90;99.90;;;;;;4846878;29;20318;-64
2022/08/14 00:47:00;;;;;;;5.87;3.90;;;18.90;99.90;;;;;;4848486;29;20203;-64
2022/08/14 00:49:31;;;;;;;3.57;3.27;;;18.90;99.90;;;;;;4858540;29;20210;-64
2022/08/14 00:52:05;;;;;;;3.83;3.53;;;18.80;99.90;;;;;;4850281;29;20556;-64
2022/08/14 00:54:36;;;;;;;3.43;3.13;;;18.80;99.90;;;;;;4852622;29;20620;-65
2022/08/14 00:57:05;;;;;;;3.63;3.33;;;18.80;99.90;;;;;;4847420;29;20320;-65
2022/08/14 00:59:35;;;;;;;3.67;3.37;;;18.80;99.90;;;;;;4846237;29;20744;-65
2022/08/14 01:02:05;;;;;;;3.63;3.33;;;18.80;99.90;;;;;;4843736;29;20200;-65
2022/08/14 01:04:38;;;;;;;3.87;3.10;;;18.70;99.90;;;;;;4847742;29;20648;-65
2022/08/14 01:07:22;;;;;;;3.63;3.33;;;18.70;99.90;;;;;;4850345;29;20983;-65
2022/08/14 01:09:57;;;;;;;4.03;3.53;;;18.60;99.90;;;;;;4853458;29;20223;-65
2022/08/14 01:12:26;;;;;;;8.47;3.33;;;18.50;99.90;;;;;;4854054;29;20199;-65
2022/08/14 01:15:00;;;;;;;3.50;3.20;;;18.50;99.90;;;;;;4851972;29;20207;-65
2022/08/14 01:23:10;;;;;;;3.93;3.60;;;18.20;99.90;;;;;;4849615;29;20224;-65
2022/08/14 01:25:50;;;;;;;4.10;3.80;;;18.10;99.90;;;;;;4851737;29;20278;-65
2022/08/14 01:28:21;;;;;;;4.87;4.00;;;18.00;99.90;;;;;;4850802;29;20196;-65
2022/08/14 01:31:12;;;;;;;3.73;3.40;;;17.90;99.90;;;;;;4853026;29;20607;-65
2022/08/14 01:33:45;;;;;;;5.03;3.70;;;17.80;99.90;;;;;;4868965;29;20297;-65
2022/08/14 01:36:35;;;;;;;6.87;4.10;;;17.80;99.90;;;;;;4850300;29;20325;-65
2022/08/14 01:39:09;;;;;;;9.87;4.00;;;17.70;99.90;;;;;;4851689;29;20220;-65
2022/08/14 01:41:42;;;;;;;5.53;4.60;;;17.70;99.90;;;;;;4854761;29;20598;-65
2022/08/14 01:44:14;;;;;;;4.43;4.03;;;17.60;99.90;;;;;;4856047;29;20232;-65
2022/08/14 01:47:11;;;;;;;4.10;3.80;;;17.60;99.90;;;;;;4852735;29;20366;-65
2022/08/14 01:49:50;;;;;;;4.40;4.00;;;17.50;99.90;;;;;;4839044;29;20198;-65
2022/08/14 01:52:32;;;;;;;4.53;3.50;;;17.50;99.90;;;;;;4853230;29;20597;-65
2022/08/14 01:55:23;;;;;;;6.23;4.27;;;17.40;99.90;;;;;;4847435;29;20191;-65
2022/08/14 01:57:51;;;;;;;8.63;4.00;;;17.40;99.90;;;;;;4855128;29;20210;-65
2022/08/14 02:00:40;;;;;;;8.47;4.50;;;17.30;99.90;;;;;;4847019;29;20561;-65
2022/08/14 02:03:09;;;;;;;7.47;4.17;;;17.20;99.90;;;;;;4854145;29;20219;-65
2022/08/14 02:05:37;;;;;;;5.27;4.77;;;17.20;99.90;;;;;;4856076;29;20216;-65
2022/08/14 02:08:07;;;;;;;8.10;4.50;;;17.10;99.90;;;;;;4862236;29;20206;-65
2022/08/14 02:10:41;;;;;;;4.27;3.93;;;17.10;99.90;;;;;;4850227;29;20253;-65
2022/08/14 02:13:17;;;;;;;6.10;4.37;;;17.00;99.90;;;;;;4854689;29;20232;-65
2022/08/14 02:15:46;;;;;;;5.80;4.30;;;17.00;99.90;;;;;;4850945;29;20230;-65
2022/08/14 02:18:17;;;;;;;4.70;4.40;;;16.90;99.90;;;;;;4849258;29;20269;-65
2022/08/14 02:20:47;;;;;;;4.87;4.47;;;17.00;99.90;;;;;;4850474;29;20199;-65
2022/08/14 02:23:16;;;;;;;4.60;4.20;;;16.90;99.90;;;;;;4857201;29;20192;-65
2022/08/14 02:25:58;;;;;;;4.47;4.17;;;16.90;99.90;;;;;;4850726;29;20215;-65
2022/08/14 02:28:48;;;;;;;8.20;4.73;;;16.80;99.90;;;;;;4849786;29;20336;-65
2022/08/14 02:31:31;;;;;;;5.03;4.57;;;16.80;99.90;;;;;;4848824;29;20191;-65
2022/08/14 02:34:17;;;;;;;12.53;4.97;;;16.80;99.90;;;;;;4852499;29;20213;-64
2022/08/14 02:36:51;;;;;;;4.63;4.30;;;16.70;99.90;;;;;;4853522;29;20243;-65
2022/08/14 02:39:35;;;;;;;5.13;4.43;;;16.70;99.90;;;;;;4849503;29;20233;-65
2022/08/14 02:42:07;;;;;;;5.10;4.50;;;16.70;99.90;;;;;;4850995;29;20230;-65
2022/08/14 02:44:42;;;;;;;4.97;4.57;;;16.70;99.90;;;;;;4847917;29;20228;-65
2022/08/14 02:47:18;;;;;;;8.43;5.00;;;16.70;99.90;;;;;;4850861;29;20228;-65
2022/08/14 02:49:49;;;;;;;5.10;4.60;;;16.70;99.90;;;;;;4856791;29;20203;-65
2022/08/14 02:52:23;;;;;;;4.70;4.40;;;16.70;99.90;;;;;;4853050;29;20208;-65
2022/08/14 02:55:11;;;;;;;5.00;4.70;;;16.70;99.90;;;;;;4854463;29;20207;-65
2022/08/14 02:57:50;;;;;;;4.50;4.20;;;16.70;99.90;;;;;;4849992;29;20215;-64
2022/08/14 03:00:25;;;;;;;5.53;4.63;;;16.70;99.90;;;;;;4846957;29;20292;-64
2022/08/14 03:02:54;;;;;;;9.07;4.67;;;16.60;99.90;;;;;;4849125;29;20278;-64
2022/08/14 03:05:29;;;;;;;5.77;4.80;;;16.60;99.90;;;;;;4851860;29;20204;-64
2022/08/14 03:08:08;;;;;;;4.47;4.17;;;16.60;99.90;;;;;;4849500;29;20209;-64
2022/08/14 03:10:38;;;;;;;4.43;4.03;;;16.60;99.90;;;;;;4850108;29;20208;-64
2022/08/14 03:13:17;;;;;;;4.40;4.20;;;16.60;99.90;;;;;;4857618;29;20204;-64
2022/08/14 03:15:51;;;;;;;5.80;4.37;;;16.60;99.90;;;;;;4849622;29;20206;-64
2022/08/14 03:18:26;;;;;;;4.60;4.27;;;16.60;99.90;;;;;;4853716;29;20290;-64
2022/08/14 03:21:06;;;;;;;4.70;4.40;;;16.60;99.90;;;;;;4842701;29;20222;-64
2022/08/14 03:23:35;;;;;;;4.87;4.57;;;16.60;99.90;;;;;;4852332;29;20283;-64
2022/08/14 03:26:08;;;;;;;4.60;4.23;;;16.60;99.90;;;;;;4849168;29;20208;-64
2022/08/14 03:28:48;;;;;;;4.80;4.40;;;16.60;99.90;;;;;;4858603;29;21379;-64
2022/08/14 03:31:22;;;;;;;4.57;4.33;;;16.60;99.90;;;;;;4846888;29;20575;-65
2022/08/14 03:33:56;;;;;;;5.70;4.37;;;16.60;99.90;;;;;;4850931;29;20937;-64
2022/08/14 03:36:31;;;;;;;4.70;4.37;;;16.60;99.90;;;;;;4848912;29;20594;-65
2022/08/14 03:39:21;;;;;;;5.03;4.50;;;16.60;99.90;;;;;;4861876;29;20219;-64
2022/08/14 03:41:53;;;;;;;4.40;4.10;;;16.60;99.90;;;;;;4846767;29;20197;-64
2022/08/14 03:44:24;;;;;;;5.97;4.40;;;16.50;99.90;;;;;;4866952;29;20231;-64
2022/08/14 03:47:13;;;;;;;5.17;4.20;;;16.60;99.90;;;;;;4849524;29;20271;-64
2022/08/14 03:49:44;;;;;;;4.30;4.10;;;16.50;99.90;;;;;;4849627;29;20219;-64
2022/08/14 03:52:17;;;;;;;4.30;4.10;;;16.50;99.90;;;;;;4850861;29;20303;-64
2022/08/14 03:55:07;;;;;;;4.13;3.97;;;16.50;99.90;;;;;;4853648;29;20204;-64
2022/08/14 03:57:36;;;;;;;4.00;3.90;;;16.50;99.90;;;;;;4853068;29;20717;-65
2022/08/14 04:00:12;;;;;;;4.70;4.40;;;16.50;99.90;;;;;;4851142;29;20376;-64
2022/08/14 04:03:14;;;;;;;5.03;4.73;;;16.50;99.90;;;;;;4856055;29;20963;-65
2022/08/14 04:06:28;;;;;;;5.30;4.80;;;16.40;99.90;;;;;;4851148;29;20477;-64
2022/08/14 04:08:59;;;;;;;4.57;4.30;;;16.40;99.90;;;;;;4848752;29;20200;-64
2022/08/14 04:11:28;;;;;;;4.87;4.30;;;16.40;99.90;;;;;;4847727;29;20199;-65
2022/08/14 04:13:56;;;;;;;4.27;4.07;;;16.40;99.90;;;;;;4835534;29;20203;-65
2022/08/14 04:16:27;;;;;;;4.07;3.80;;;16.40;99.90;;;;;;4848156;29;20227;-64
2022/08/14 04:18:59;;;;;;;4.10;3.90;;;16.40;99.90;;;;;;4853293;29;20965;-64
2022/08/14 04:21:29;;;;;;;8.00;4.30;;;16.40;99.90;;;;;;4847762;29;20216;-65
2022/08/14 04:24:17;;;;;;;4.73;3.60;;;16.40;99.90;;;;;;4847029;29;20192;-64
2022/08/14 04:26:47;;;;;;;4.43;4.13;;;16.40;99.90;;;;;;4851733;29;20207;-65
2022/08/14 04:29:15;;;;;;;4.60;4.20;;;16.30;99.90;;;;;;4859175;29;20211;-64
2022/08/14 04:31:46;;;;;;;4.30;4.00;;;16.30;99.90;;;;;;4862166;29;20298;-64
2022/08/14 04:34:38;;;;;;;4.17;3.93;;;16.30;99.90;;;;;;4864286;29;20234;-64
2022/08/14 04:45:39;;;;;;;4.90;4.50;;;16.20;99.90;;;;;;4847929;29;21031;-64
2022/08/14 04:48:14;;;;;;;6.17;4.97;;;16.20;99.90;;;;;;4859818;29;20214;-64
2022/08/14 04:51:04;;;;;;;7.33;5.17;;;16.10;99.90;;;;;;4852836;29;20191;-65
2022/08/14 04:53:33;;;;;;;5.03;4.60;;;16.20;99.90;;;;;;4850331;29;20204;-65
2022/08/14 04:56:11;;;;;;;5.07;4.67;;;16.20;99.90;;;;;;4857370;29;20216;-65
2022/08/14 04:59:03;;;;;;;5.43;5.03;;;16.20;99.90;;;;;;4851336;29;20215;-64
2022/08/14 05:01:42;;;;;;;5.17;4.87;;;16.20;99.90;;;;;;4851945;29;20229;-64
2022/08/14 05:04:18;;;;;;;4.83;4.30;;;16.20;99.90;;;;;;4867263;29;20198;-65
2022/08/14 05:06:52;;;;;;;5.03;4.30;;;16.20;99.90;;;;;;4853973;29;20207;-65
2022/08/14 05:09:23;;;;;;;4.87;4.47;;;16.10;99.90;;;;;;4860498;29;20192;-64
2022/08/14 05:11:57;;;;;;;4.80;4.40;;;16.10;99.90;;;;;;4858254;29;20277;-64
2022/08/14 05:14:46;;;;;;;5.83;4.80;;;16.10;99.90;;;;;;4847935;29;20236;-64
2022/08/14 05:17:25;;;;;;;4.90;4.60;;;16.20;99.90;;;;;;4855323;29;20230;-64
2022/08/14 05:20:13;;;;;;;5.23;4.73;;;16.20;99.90;;;;;;4853100;29;20232;-65
2022/08/14 05:23:02;;;;;;;4.90;4.53;;;16.20;99.90;;;;;;4852490;29;20195;-64
2022/08/14 05:25:31;;;;;;;4.90;4.50;;;16.30;99.90;;;;;;4851656;29;20207;-64
2022/08/14 05:28:10;;;;;;;4.60;4.20;;;16.40;99.90;;;;;;4857522;29;20278;-63
2022/08/14 05:30:43;;;;;;;8.47;5.00;;;16.50;99.90;;;;;;4852442;29;20696;-64
2022/08/14 05:33:12;;;;;;;4.87;4.47;;;16.60;99.90;;;;;;4845199;29;20200;-64
2022/08/14 05:35:44;;;;;;;5.23;4.70;;;16.70;99.90;;;;;;4855277;29;20232;-63
2022/08/14 05:38:16;;;;;;;4.67;4.17;;;16.80;99.90;;;;;;4859661;29;20218;-64
2022/08/14 05:40:59;;;;;;;5.03;4.60;;;16.90;99.90;;;;;;4842878;29;20213;-64
2022/08/14 05:43:29;;;;;;;5.63;5.10;;;17.10;99.90;;;;;;4852457;29;20214;-64
2022/08/14 05:46:11;;;;;;;5.17;4.87;;;17.20;99.90;;;;;;4853576;29;20205;-64
2022/08/14 05:48:42;;;;;;;4.70;4.33;;;17.40;99.90;;;;;;4851758;29;20284;-63
2022/08/14 05:51:13;;;;;;;5.13;4.63;;;17.60;99.90;;;;;;4850064;29;20192;-65
2022/08/14 05:53:43;;;;;;;4.87;4.40;;;17.80;99.90;;;;;;4862141;29;20681;-64
2022/08/14 05:56:29;;;;;;;4.83;4.50;;;18.00;99.90;;;;;;4848350;29;20202;-64
2022/08/14 05:58:58;;;;;;;5.87;4.40;;;18.20;99.90;;;;;;4850453;29;20724;-64
2022/08/14 06:01:27;;;;;;;5.80;5.13;;;18.50;99.90;;;;;;4849763;29;20234;-64
2022/08/14 06:03:59;;;;;;;4.77;4.50;;;18.70;99.90;;;;;;4849957;29;20208;-64
2022/08/14 06:06:28;;;;;;;5.10;4.70;;;18.90;99.90;;;;;;4848753;29;20199;-64
2022/08/14 06:09:04;;;;;;;4.70;4.30;;;19.00;99.90;;;;;;4848879;29;20230;-64
2022/08/14 06:11:36;;;;;;;5.07;4.57;;;19.20;99.90;;;;;;4852752;29;20194;-65
2022/08/14 06:14:05;;;;;;;5.27;4.73;;;19.40;99.90;;;;;;4847485;29;20219;-65
2022/08/14 06:16:51;;;;;;;4.53;4.30;;;19.60;99.90;;;;;;4853627;29;20230;-64
2022/08/14 06:19:20;;;;;;;4.60;4.40;;;19.80;99.90;;;;;;4853501;29;20610;-64
2022/08/14 06:21:52;;;;;;;4.87;4.50;;;20.10;99.90;;;;;;4851562;29;20684;-64
2022/08/14 06:24:28;;;;;;;4.63;4.33;;;20.40;99.90;;;;;;4852947;29;20282;-64
2022/08/14 06:27:01;;;;;;;10.30;4.93;;;20.60;99.90;;;;;;4849050;29;20199;-64
2022/08/14 06:29:34;;;;;;;4.40;4.20;;;20.80;99.90;;;;;;4853751;29;20207;-65
2022/08/14 06:32:03;;;;;;;5.93;4.60;;;20.90;99.90;;;;;;4857871;29;20198;-64
2022/08/14 06:34:52;;;;;;;5.03;4.23;;;21.10;99.90;;;;;;4845032;29;20211;-64
2022/08/14 06:37:42;;;;;;;4.50;4.23;;;21.30;99.90;;;;;;4848404;29;20207;-64
2022/08/14 06:40:13;;;;;;;4.83;4.43;;;21.60;99.90;;;;;;4849987;29;20215;-64
2022/08/14 06:42:55;;;;;;;7.10;4.67;;;21.70;99.90;;;;;;4845665;29;20202;-64
2022/08/14 06:45:28;;;;;;;5.40;4.50;;;21.90;99.90;;;;;;4851257;29;20207;-64
2022/08/14 06:47:56;;;;;;;4.10;3.80;;;22.00;99.90;;;;;;4855955;29;20286;-64
2022/08/14 06:50:26;;;;;;;4.73;3.30;;;22.20;99.90;;;;;;4852465;29;20195;-64
2022/08/14 06:52:59;;;;;;;3.37;3.10;;;22.50;99.90;;;;;;4856686;29;20206;-64
2022/08/14 06:55:27;;;;;;;3.73;3.50;;;23.00;99.90;;;;;;4851927;29;21910;-64
2022/08/14 06:57:57;;;;;;;3.53;3.07;;;23.20;99.90;;;;;;4854289;29;20238;-64
2022/08/14 07:00:26;;;;;;;6.40;3.07;;;23.60;99.90;;;;;;4853190;29;20201;-64
2022/08/14 07:05:48;;;;;;;3.97;2.80;;;24.00;99.90;;;;;;4844327;29;20235;-64
2022/08/14 07:08:29;;;;;;;2.93;2.67;;;24.20;99.90;;;;;;4850884;29;20200;-64
2022/08/14 07:11:03;;;;;;;2.37;2.23;;;24.40;99.90;;;;;;4858506;29;20231;-64
2022/08/14 07:13:32;;;;;;;5.23;2.77;;;24.60;99.90;;;;;;4853236;29;20205;-64
2022/08/14 07:16:01;;;;;;;2.37;2.27;;;24.90;99.90;;;;;;4850957;29;20706;-64
2022/08/14 07:18:35;;;;;;;4.73;2.50;;;25.00;99.90;;;;;;4856393;29;20233;-64
2022/08/14 07:21:05;;;;;;;3.23;2.63;;;25.10;99.90;;;;;;4854167;29;20200;-64
2022/08/14 07:23:35;;;;;;;2.73;2.63;;;25.10;99.90;;;;;;4859545;29;20201;-64
2022/08/14 07:26:12;;;;;;;2.90;2.70;;;25.10;99.90;;;;;;4866928;29;20206;-64
2022/08/14 07:28:42;;;;;;;3.30;2.67;;;25.10;99.90;;;;;;4843929;29;20206;-65
2022/08/14 07:31:12;;;;;;;4.37;2.60;;;25.20;99.90;;;;;;4856747;29;20209;-64
2022/08/14 07:33:45;;;;;;;2.93;2.83;;;25.30;99.90;;;;;;4857736;29;20214;-64
2022/08/14 07:36:19;;;;;;;2.60;2.50;;;25.30;99.90;;;;;;4847306;29;20236;-64
2022/08/14 07:38:59;;;;;;;2.40;2.30;;;25.40;99.90;;;;;;4847673;29;20572;-64
2022/08/14 07:41:29;;;;;;;6.23;2.90;;;25.60;99.90;;;;;;4847684;29;20216;-64
2022/08/14 07:44:02;;;;;;;3.00;2.70;;;26.00;99.90;;;;;;4849991;29;20282;-64
2022/08/14 07:46:50;;;;;;;3.33;3.13;;;26.20;99.90;;;;;;4840598;29;20215;-64
2022/08/14 07:49:19;;;;;;;4.20;3.27;;;26.60;99.90;;;;;;4849548;29;20231;-64
2022/08/14 07:51:51;;;;;;;3.60;3.30;;;26.80;99.90;;;;;;4852098;29;20203;-65
2022/08/14 07:54:23;;;;;;;3.97;3.57;;;27.00;99.90;;;;;;4854610;29;20263;-65
2022/08/14 07:56:58;;;;;;;3.40;3.10;;;27.30;99.90;;;;;;4845921;29;20638;-64
2022/08/14 07:59:27;;;;;;;3.67;3.17;;;27.40;99.90;;;;;;4846262;29;20215;-64
2022/08/14 08:02:11;;;;;;;4.50;3.30;;;27.70;99.90;;;;;;4846300;29;20219;-65
2022/08/14 08:04:49;;;;;;;3.23;3.00;;;27.80;99.90;;;;;;4847126;29;20200;-65
2022/08/14 08:07:22;;;;;;;3.38;3.17;;;27.80;99.90;;;;;;4847433;29;20227;-65
2022/08/14 08:09:57;;;;;;;8.47;3.57;;;28.10;99.90;;;;;;4847594;29;20206;-65
2022/08/14 08:12:28;;;;;;;3.07;2.87;;;28.20;99.90;;;;;;4852027;29;20187;-65
2022/08/14 08:15:00;;;;;;;3.35;3.15;;;28.40;99.90;;;;;;4850318;29;20207;-65
2022/08/14 08:17:36;;;;;;;3.75;2.65;;;28.70;99.90;;;;;;4839864;29;20222;-66
2022/08/14 08:20:16;;;;;;;4.18;3.05;;;29.20;99.90;;;;;;4843339;29;20223;-65
2022/08/14 08:22:49;;;;;;;4.45;3.40;;;29.50;99.90;;;;;;4842792;29;20221;-65
2022/08/14 08:25:25;;;;;;;3.30;3.10;;;29.50;99.90;;;;;;4850290;29;20210;-65
2022/08/14 08:27:58;;;;;;;3.30;3.13;;;29.40;99.90;;;;;;4850835;29;20615;-65
2022/08/14 08:30:27;;;;;;;3.55;3.22;;;29.40;99.90;;;;;;4861717;29;20213;-65
2022/08/14 08:33:00;;;;;;;5.15;2.75;;;29.30;99.90;;;;;;4847398;29;20239;-65
2022/08/14 08:35:33;;;;;;;2.70;2.70;;;29.20;99.90;;;;;;4851657;29;20235;-65
2022/08/14 08:38:20;;;;;;;3.22;3.13;;;29.20;99.90;;;;;;4843907;29;20221;-65
2022/08/14 08:41:09;;;;;;;3.33;3.03;;;29.30;99.90;;;;;;4839026;29;20210;-66
2022/08/14 08:43:40;;;;;;;5.57;3.20;;;29.30;99.90;;;;;;4847755;29;20708;-64
2022/08/14 08:46:19;;;;;;;7.03;2.70;;;29.40;99.90;;;;;;4844631;29;20724;-64
2022/08/14 08:48:52;;;;;;;9.05;3.13;;;29.50;99.90;;;;;;4851956;29;20196;-64
2022/08/14 08:51:25;;;;;;;3.25;2.72;;;29.70;99.90;;;;;;4846243;29;21025;-64
2022/08/14 08:54:04;;;;;;;2.90;2.80;;;29.90;99.90;;;;;;4837964;29;20296;-64
2022/08/14 08:56:42;;;;;;;2.88;2.67;;;30.00;99.90;;;;;;4847346;29;20292;-64
2022/08/14 08:59:20;;;;;;;3.35;3.00;;;30.30;99.90;;;;;;4849051;29;20260;-64
2022/08/14 09:01:50;;;;;;;2.70;2.47;;;30.50;99.90;;;;;;4846980;29;20700;-64
2022/08/14 09:04:25;;;;;;;4.25;2.53;;;30.60;99.70;;;;;;4847911;29;20691;-64
2022/08/14 09:06:54;;;;;;;2.83;2.72;;;30.70;99.80;;;;;;4866745;29;20214;-64
2022/08/14 09:09:50;;;;;;;4.60;2.50;;;31.00;99.80;;;;;;4848811;29;20204;-64
2022/08/14 09:12:28;;;;;;;2.95;2.67;;;31.20;99.80;;;;;;4846743;29;20250;-64
2022/08/14 09:15:02;;;;;;;2.60;2.40;;;31.60;99.90;;;;;;4850245;29;20287;-64
2022/08/14 09:17:36;;;;;;;2.67;2.50;;;32.10;98.10;;;;;;4852462;29;20220;-64
2022/08/14 09:20:08;;;;;;;2.67;2.20;;;32.60;97.10;;;;;;4850133;29;20211;-64
2022/08/14 09:22:40;;;;;;;2.10;2.10;;;33.30;97.60;;;;;;4851958;29;20217;-64
2022/08/14 09:25:16;;;;;;;2.13;2.03;;;33.40;95.50;;;;;;4848055;29;20224;-64
2022/08/14 09:27:48;;;;;;;2.17;2.08;;;33.80;96.10;;;;;;4852541;29;20202;-64
2022/08/14 09:30:17;;;;;;;2.17;2.08;;;33.90;95.40;;;;;;4851150;29;20849;-64
2022/08/14 09:33:35;;;;;;;2.30;2.08;;;33.90;94.10;;;;;;4853836;29;20196;-64
2022/08/14 09:36:40;;;;;;;3.90;1.95;;;33.20;92.50;;;;;;4859225;29;20246;-64
2022/08/14 09:39:33;;;;;;;4.03;1.83;;;32.60;92.20;;;;;;4854695;29;20291;-64
2022/08/14 09:42:22;;;;;;;2.00;1.80;;;32.40;92.60;;;;;;4848532;29;20195;-64
2022/08/14 09:45:12;;;;;;;1.98;1.98;;;32.20;92.50;;;;;;4847692;29;20211;-64
2022/08/14 09:47:43;;;;;;;2.10;2.00;;;32.30;92.00;;;;;;4864375;29;20274;-64
2022/08/14 09:50:24;;;;;;;1.92;1.83;;;32.30;92.20;;;;;;4855118;29;20207;-63
2022/08/14 09:52:57;;;;;;;1.85;1.75;;;32.60;92.60;;;;;;4858137;29;20198;-64
2022/08/14 09:55:31;;;;;;;1.85;1.75;;;32.50;90.80;;;;;;4850298;29;20862;-64
2022/08/14 09:58:11;;;;;;;1.70;1.70;;;32.40;90.80;;;;;;4857868;29;20208;-64
2022/08/14 10:00:50;;;;;;;2.20;1.70;;;33.00;90.80;;;;;;4853238;29;20238;-64
2022/08/14 10:03:29;;;;;;;1.77;1.67;;;33.20;91.00;;;;;;4852508;29;20219;-64
2022/08/14 10:06:09;;;;;;;3.33;1.63;;;33.30;90.90;;;;;;4850451;29;20615;-64
2022/08/14 10:08:43;;;;;;;1.90;1.80;;;33.00;90.00;;;;;;4852625;29;20200;-64
2022/08/14 10:11:21;;;;;;;1.75;1.65;;;32.90;87.50;;;;;;4838782;29;20278;-64
2022/08/14 10:13:53;;;;;;;1.70;1.70;;;32.80;86.30;;;;;;4845014;29;20207;-64
2022/08/14 10:16:28;;;;;;;1.67;1.67;;;32.80;85.70;;;;;;4840640;29;20313;-64
2022/08/14 10:19:08;;;;;;;2.05;1.60;;;33.00;87.60;;;;;;4844707;29;20204;-64
2022/08/14 10:21:39;;;;;;;1.60;1.60;;;32.90;86.80;;;;;;4847368;29;20218;-64
2022/08/14 10:24:29;;;;;;;2.95;1.70;;;32.60;88.10;;;;;;4842091;29;20220;-64
2022/08/14 10:27:15;;;;;;;1.73;1.73;;;32.30;85.20;;;;;;4843970;29;20211;-64
2022/08/14 10:29:44;;;;;;;1.48;1.40;;;31.70;85.80;;;;;;4854644;29;20257;-64
2022/08/14 10:32:14;;;;;;;3.58;1.75;;;31.40;85.30;;;;;;4848963;29;20906;-64
2022/08/14 10:35:05;;;;;;;3.38;2.00;;;31.60;86.10;;;;;;4846367;29;20202;-63
2022/08/14 10:37:45;;;;;;;1.60;1.60;;;32.00;86.60;;;;;;4850288;29;20207;-64
2022/08/14 10:40:16;;;;;;;1.40;1.40;;;32.70;85.50;;;;;;4848169;29;20264;-64
2022/08/14 10:43:17;;;;;;;2.83;1.80;;;33.50;82.90;;;;;;4843536;29;20220;-64
2022/08/14 10:45:55;;;;;;;1.40;1.40;;;34.20;82.90;;;;;;4847149;29;20200;-64
2022/08/14 10:48:32;;;;;;;1.77;1.67;;;34.40;82.80;;;;;;4846531;29;20209;-64
2022/08/14 10:51:07;;;;;;;1.70;1.50;;;35.10;83.90;;;;;;4832162;29;20208;-64
2022/08/14 10:53:37;;;;;;;1.45;1.45;;;35.70;80.30;;;;;;4845334;29;20244;-64
2022/08/14 10:56:12;;;;;;;1.25;1.25;;;36.40;80.80;;;;;;4846598;29;20214;-64
2022/08/14 10:59:02;;;;;;;2.25;1.60;;;37.00;79.00;;;;;;4845378;29;20203;-65
2022/08/14 11:01:31;;;;;;;4.30;1.38;;;37.60;78.00;;;;;;4842383;29;20188;-65
2022/08/14 11:04:22;;;;;;;2.65;1.35;;;38.00;79.90;;;;;;4856448;29;20267;-64
2022/08/14 11:06:55;;;;;;;2.05;1.25;;;38.10;74.00;;;;;;4849746;29;20242;-64
2022/08/14 11:09:24;;;;;;;1.50;1.48;;;37.90;74.10;;;;;;4844013;29;20204;-64
2022/08/14 11:12:00;;;;;;;1.70;1.23;;;37.00;72.20;;;;;;4856246;29;20286;-64
2022/08/14 11:14:58;;;;;;;3.22;1.40;;;36.60;75.60;;;;;;4847377;29;20206;-64
2022/08/14 11:17:31;;;;;;;1.35;1.35;;;36.70;74.60;;;;;;4849211;29;20219;-64
2022/08/14 11:20:04;;;;;;;1.48;1.40;;;37.10;75.50;;;;;;4847455;29;20203;-64
2022/08/14 11:22:41;;;;;;;1.40;1.30;;;37.30;70.80;;;;;;4847427;29;20208;-64
2022/08/14 11:25:31;;;;;;;1.10;1.10;;;37.20;69.50;;;;;;4847009;29;20195;-64
2022/08/14 11:28:22;;;;;;;1.38;1.27;;;37.40;69.70;;;;;;4857522;29;20203;-63
2022/08/14 11:31:16;;;;;;;1.50;1.45;;;37.10;68.70;;;;;;4857149;29;20202;-64
2022/08/14 11:33:48;;;;;;;1.40;1.40;;;36.60;69.90;;;;;;4847856;29;20286;-64
2022/08/14 11:36:25;;;;;;;1.40;1.40;;;36.80;69.60;;;;;;4861075;29;20629;-65
2022/08/14 11:39:19;;;;;;;1.40;1.40;;;36.90;71.30;;;;;;4851876;29;20204;-65
2022/08/14 11:42:03;;;;;;;1.60;1.50;;;36.90;71.40;;;;;;4852377;29;20262;-64
2022/08/14 11:44:56;;;;;;;1.67;1.67;;;36.50;71.20;;;;;;4853310;29;20220;-65
2022/08/14 11:47:28;;;;;;;1.75;1.75;;;36.50;69.40;;;;;;4842284;29;20219;-64
2022/08/14 11:50:16;;;;;;;1.65;1.55;;;36.10;70.10;;;;;;4844802;29;20207;-64
2022/08/14 11:53:06;;;;;;;1.77;1.70;;;35.60;72.30;;;;;;4837905;29;20224;-64
2022/08/14 11:55:37;;;;;;;2.05;1.50;;;35.70;71.40;;;;;;4838699;29;20217;-64
2022/08/14 11:58:08;;;;;;;1.77;1.60;;;35.70;70.60;;;;;;4839972;29;20218;-64
2022/08/14 12:00:46;;;;;;;1.90;1.80;;;35.40;70.60;;;;;;4842864;29;20196;-64
2022/08/14 12:03:16;;;;;;;1.75;1.65;;;35.20;71.70;;;;;;4842027;29;20212;-64
2022/08/14 12:06:06;;;;;;;1.70;1.70;;;35.20;71.60;;;;;;4841688;29;20201;-64
2022/08/14 12:08:57;;;;;;;1.85;1.85;;;35.30;71.30;;;;;;4841762;29;20199;-64
2022/08/14 12:11:39;;;;;;;2.15;1.80;;;35.50;73.60;;;;;;4837734;29;20206;-64
2022/08/14 12:14:16;;;;;;;2.15;1.60;;;35.60;71.40;;;;;;4844257;29;20199;-64
2022/08/14 12:17:06;;;;;;;1.48;1.48;;;35.50;71.20;;;;;;4841327;29;20229;-64
2022/08/14 12:19:45;;;;;;;2.45;1.65;;;35.50;73.00;;;;;;4843927;29;20209;-64
2022/08/14 12:22:33;;;;;;;1.52;1.52;;;35.50;71.70;;;;;;4852519;29;20962;-64
2022/08/14 12:25:06;;;;;;;1.80;1.70;;;35.30;70.90;;;;;;4842695;29;20264;-64
2022/08/14 12:27:43;;;;;;;1.80;1.70;;;35.10;68.70;;;;;;4841031;29;20197;-64
2022/08/14 12:30:30;;;;;;;1.58;1.58;;;34.70;70.50;;;;;;4838832;29;20210;-64
2022/08/14 12:33:07;;;;;;;1.95;1.60;;;34.60;68.40;;;;;;4841858;29;20299;-64
2022/08/14 12:35:37;;;;;;;3.17;1.60;;;34.70;70.30;;;;;;4838973;29;20240;-64
2022/08/14 12:38:09;;;;;;;1.45;1.45;;;34.90;69.00;;;;;;4844749;29;20233;-64
2022/08/14 12:40:49;;;;;;;1.30;1.30;;;34.90;68.40;;;;;;4847947;29;20204;-62
2022/08/14 12:43:20;;;;;;;1.60;1.50;;;34.60;67.00;;;;;;4852221;29;20215;-62
2022/08/14 12:45:53;;;;;;;1.55;1.50;;;34.40;68.00;;;;;;4846931;29;20220;-62
2022/08/14 12:48:23;;;;;;;1.50;1.50;;;34.50;67.50;;;;;;4849956;29;20238;-62
2022/08/14 12:50:59;;;;;;;1.58;1.52;;;34.70;67.40;;;;;;4846237;29;20740;-63
2022/08/14 12:53:37;;;;;;;1.60;1.58;;;34.60;66.70;;;;;;4845839;29;20290;-62
2022/08/14 12:56:10;;;;;;;1.30;1.30;;;34.50;67.30;;;;;;4852768;29;20195;-63
2022/08/14 12:58:59;;;;;;;1.40;1.40;;;34.50;68.80;;;;;;4849493;29;20208;-62
2022/08/14 13:01:30;;;;;;;2.08;1.30;;;34.70;69.70;;;;;;4849751;29;20691;-62
2022/08/14 13:04:20;;;;;;;1.40;1.40;;;34.50;67.00;;;;;;4856005;29;20224;-63
2022/08/14 13:06:51;;;;;;;1.95;1.30;;;34.10;65.90;;;;;;4852722;29;20195;-62
2022/08/14 13:09:26;;;;;;;1.42;1.42;;;33.80;66.50;;;;;;4852509;29;20202;-62
2022/08/14 13:12:07;;;;;;;6.07;1.55;;;34.00;68.80;;;;;;4848598;29;20290;-62
2022/08/14 13:14:58;;;;;;;1.70;1.70;;;34.10;69.10;;;;;;4859008;29;20289;-62
2022/08/14 13:17:28;;;;;;;1.40;1.40;;;34.50;69.70;;;;;;4851750;29;20231;-63
2022/08/14 13:20:05;;;;;;;1.55;1.55;;;34.50;68.70;;;;;;4859360;29;20207;-62
2022/08/14 13:22:51;;;;;;;4.25;1.50;;;34.30;68.90;;;;;;4849176;29;20199;-62
2022/08/14 13:25:21;;;;;;;1.50;1.50;;;34.20;68.40;;;;;;4857143;29;20228;-61
2022/08/14 13:27:54;;;;;;;1.45;1.45;;;34.20;68.30;;;;;;4854543;29;20803;-61
2022/08/14 13:30:24;;;;;;;1.40;1.40;;;33.90;69.10;;;;;;4851369;29;20736;-61
2022/08/14 13:32:54;;;;;;;3.85;1.48;;;33.90;69.40;;;;;;4850696;29;20324;-61
2022/08/14 13:35:25;;;;;;;1.42;1.42;;;34.00;69.80;;;;;;4844858;29;20267;-64
2022/08/14 13:37:56;;;;;;;1.80;1.70;;;34.10;70.10;;;;;;4846874;29;20239;-64
2022/08/14 13:40:26;;;;;;;1.70;1.70;;;34.10;68.00;;;;;;4846686;29;20304;-64
2022/08/14 13:42:56;;;;;;;1.58;1.48;;;34.10;69.70;;;;;;4851609;29;20215;-63
2022/08/14 13:45:25;;;;;;;1.50;1.50;;;34.00;70.40;;;;;;4853207;29;20224;-64
2022/08/14 13:48:14;;;;;;;1.83;1.73;;;33.70;70.10;;;;;;4838008;29;20216;-63
2022/08/14 13:51:06;;;;;;;1.40;1.40;;;33.80;70.70;;;;;;4856411;29;20252;-64